createdAt,value
2023-04-19T00:00:37.037Z,12.2308
2023-04-19T00:01:38.095Z,12.7154
2023-04-19T00:02:40.376Z,12.4308
2023-04-19T00:03:40.397Z,12.6692
2023-04-19T00:04:41.301Z,12.0462
2023-04-19T00:05:42.189Z,12.7462
2023-04-19T00:06:43.200Z,13.2231
2023-04-19T00:07:44.332Z,12.9923
2023-04-19T00:08:45.299Z,12.6538
2023-04-19T00:09:46.340Z,12.9769
2023-04-19T00:10:47.395Z,12.9538
2023-04-19T00:11:48.419Z,12.4000
2023-04-19T00:12:49.521Z,12.6308
2023-04-19T00:13:50.543Z,12.0154
2023-04-19T00:14:51.575Z,12.5615
2023-04-19T00:15:52.626Z,12.6538
2023-04-19T00:16:53.794Z,14.0154
2023-04-19T00:17:54.820Z,12.7846
2023-04-19T00:18:55.700Z,13.5846
2023-04-19T00:19:56.793Z,13.9154
2023-04-19T00:20:57.820Z,13.8231
2023-04-19T00:21:58.808Z,13.7846
2023-04-19T00:22:59.900Z,14.2308
2023-04-19T00:24:00.874Z,13.5538
2023-04-19T00:25:01.983Z,13.7308
2023-04-19T00:26:02.980Z,13.8846
2023-04-19T00:27:03.997Z,13.7000
2023-04-19T00:28:05.087Z,13.6538
2023-04-19T00:29:06.084Z,15.0846
2023-04-19T00:30:07.139Z,13.1923
2023-04-19T00:31:08.213Z,13.6077
2023-04-19T00:32:09.197Z,13.5231
2023-04-19T00:33:10.326Z,14.6538
2023-04-19T00:34:11.286Z,14.0846
2023-04-19T00:35:12.338Z,14.4231
2023-04-19T00:36:13.360Z,14.8846
2023-04-19T00:37:14.317Z,14.0077
2023-04-19T00:38:15.381Z,15.1923
2023-04-19T00:39:16.402Z,14.9231
2023-04-19T00:40:17.442Z,14.8154
2023-04-19T00:41:18.472Z,13.7462
2023-04-19T00:42:19.497Z,14.4000
2023-04-19T00:43:20.564Z,14.6462
2023-04-19T00:44:21.660Z,14.0538
2023-04-19T00:45:22.631Z,14.2692
2023-04-19T00:46:23.742Z,15.0385
2023-04-19T00:47:24.696Z,15.8000
2023-04-19T00:48:25.728Z,15.4615
2023-04-19T00:49:26.821Z,15.1769
2023-04-19T00:50:27.820Z,15.4692
2023-04-19T00:51:28.859Z,15.3615
2023-04-19T00:52:29.909Z,14.8231
2023-04-19T00:53:30.937Z,15.1923
2023-04-19T00:54:32.027Z,14.3846
2023-04-19T00:55:33.035Z,15.1769
2023-04-19T00:56:34.057Z,15.1154
2023-04-19T00:57:35.082Z,14.6615
2023-04-19T00:58:36.125Z,14.8154
2023-04-19T00:59:37.226Z,15.0308
2023-04-19T01:00:38.230Z,15.3538
2023-04-19T01:01:39.335Z,14.7692
2023-04-19T01:02:40.508Z,15.3154
2023-04-19T01:03:41.541Z,14.6538
2023-04-19T01:04:42.407Z,15.4769
2023-04-19T01:05:43.425Z,14.7769
2023-04-19T01:06:44.466Z,15.0154
2023-04-19T01:07:45.505Z,14.7846
2023-04-19T01:08:46.544Z,15.5308
2023-04-19T01:09:47.603Z,14.8000
2023-04-19T01:10:48.604Z,14.5462
2023-04-19T01:11:49.689Z,14.2692
2023-04-19T01:12:50.729Z,13.8923
2023-04-19T01:13:51.754Z,14.8000
2023-04-19T01:14:52.807Z,15.0846
2023-04-19T01:15:53.856Z,14.6154
2023-04-19T01:16:54.861Z,14.1308
2023-04-19T01:17:55.996Z,15.4769
2023-04-19T01:18:57.007Z,14.8846
2023-04-19T01:19:58.020Z,15.5231
2023-04-19T01:20:59.016Z,14.4308
2023-04-19T01:22:00.127Z,15.1692
2023-04-19T01:23:01.137Z,14.8615
2023-04-19T01:24:02.206Z,14.1385
2023-04-19T01:25:03.243Z,15.0231
2023-04-19T01:26:04.249Z,15.1308
2023-04-19T01:27:05.296Z,14.6769
2023-04-19T01:28:06.313Z,14.9462
2023-04-19T01:29:07.380Z,16.2154
2023-04-19T01:30:08.447Z,14.1923
2023-04-19T01:31:09.474Z,14.3000
2023-04-19T01:32:10.498Z,15.4154
2023-04-19T01:33:11.551Z,14.8846
2023-04-19T01:34:12.675Z,14.9923
2023-04-19T01:35:13.652Z,14.3538
2023-04-19T01:36:14.664Z,14.0000
2023-04-19T01:37:15.678Z,14.9462
2023-04-19T01:38:16.714Z,13.6692
2023-04-19T01:39:17.776Z,14.5308
2023-04-19T01:40:19.008Z,15.2923
2023-04-19T01:41:19.939Z,14.1077
2023-04-19T01:42:20.975Z,14.0000
2023-04-19T01:43:22.015Z,13.8462
2023-04-19T01:44:23.067Z,13.7769
2023-04-19T01:45:24.237Z,13.6462
2023-04-19T01:46:25.184Z,13.6538
2023-04-19T01:47:26.234Z,14.2769
2023-04-19T01:48:27.273Z,14.1000
2023-04-19T01:49:28.303Z,15.2538
2023-04-19T01:50:29.387Z,14.7077
2023-04-19T01:51:30.394Z,14.2385
2023-04-19T01:52:31.385Z,15.1308
2023-04-19T01:53:32.512Z,14.9154
2023-04-19T01:54:33.479Z,14.9769
2023-04-19T01:55:34.538Z,14.6846
2023-04-19T01:56:35.638Z,15.1385
2023-04-19T01:57:36.581Z,14.4846
2023-04-19T01:58:37.626Z,15.4615
2023-04-19T01:59:38.748Z,15.2308
2023-04-19T02:00:39.920Z,15.3385
2023-04-19T02:01:40.969Z,15.7308
2023-04-19T02:02:42.004Z,15.0000
2023-04-19T02:03:43.119Z,16.0000
2023-04-19T02:04:43.929Z,16.0385
2023-04-19T02:05:45.029Z,14.8538
2023-04-19T02:06:46.070Z,15.9846
2023-04-19T02:07:47.096Z,15.4615
2023-04-19T02:08:48.153Z,15.6385
2023-04-19T02:09:49.156Z,15.9154
2023-04-19T02:10:50.173Z,16.3308
2023-04-19T02:11:51.269Z,15.1462
2023-04-19T02:12:52.295Z,16.2308
2023-04-19T02:13:53.284Z,16.4846
2023-04-19T02:14:54.295Z,14.8154
2023-04-19T02:15:55.489Z,15.0923
2023-04-19T02:16:56.351Z,17.0000
2023-04-19T02:17:57.374Z,15.4462
2023-04-19T02:18:58.379Z,15.5000
2023-04-19T02:19:59.445Z,15.4538
2023-04-19T02:21:00.493Z,15.0615
2023-04-19T02:22:01.528Z,15.3231
2023-04-19T02:23:02.525Z,16.0615
2023-04-19T02:24:03.569Z,15.1231
2023-04-19T02:25:04.655Z,16.1385
2023-04-19T02:26:05.648Z,15.3154
2023-04-19T02:27:06.704Z,15.1308
2023-04-19T02:28:07.722Z,15.0462
2023-04-19T02:29:08.786Z,16.1231
2023-04-19T02:30:09.789Z,15.5462
2023-04-19T02:31:10.860Z,14.8308
2023-04-19T02:32:11.862Z,15.8846
2023-04-19T02:33:12.903Z,15.5154
2023-04-19T02:34:14.113Z,14.5615
2023-04-19T02:35:14.999Z,15.4077
2023-04-19T02:36:16.060Z,14.6846
2023-04-19T02:37:17.097Z,15.3462
2023-04-19T02:38:18.106Z,15.2692
2023-04-19T02:39:19.137Z,14.9000
2023-04-19T02:40:20.178Z,15.6462
2023-04-19T02:41:21.276Z,15.2615
2023-04-19T02:42:22.275Z,15.3615
2023-04-19T02:43:23.295Z,14.7538
2023-04-19T02:44:24.334Z,14.5846
2023-04-19T02:45:25.372Z,15.9077
2023-04-19T02:46:26.532Z,15.0385
2023-04-19T02:47:27.475Z,15.0846
2023-04-19T02:48:28.499Z,15.5308
2023-04-19T02:49:29.526Z,15.3615
2023-04-19T02:50:30.591Z,14.9077
2023-04-19T02:51:31.694Z,16.0769
2023-04-19T02:52:32.671Z,15.7385
2023-04-19T02:53:33.715Z,15.6385
2023-04-19T02:54:34.730Z,15.3000
2023-04-19T02:55:35.787Z,15.0846
2023-04-19T02:56:36.853Z,15.0846
2023-04-19T02:57:37.856Z,15.1231
2023-04-19T02:58:38.889Z,16.2462
2023-04-19T02:59:39.951Z,16.1385
2023-04-19T03:00:40.994Z,15.2231
2023-04-19T03:01:42.091Z,16.3231
2023-04-19T03:02:43.128Z,14.5000
2023-04-19T03:03:44.191Z,15.5385
2023-04-19T03:04:45.164Z,15.0615
2023-04-19T03:05:46.213Z,14.5769
2023-04-19T03:06:47.303Z,14.4308
2023-04-19T03:07:48.316Z,15.4538
2023-04-19T03:08:49.318Z,15.0692
2023-04-19T03:09:50.361Z,14.1615
2023-04-19T03:10:51.411Z,14.6385
2023-04-19T03:11:52.520Z,16.3692
2023-04-19T03:12:53.575Z,14.6769
2023-04-19T03:13:54.586Z,15.0769
2023-04-19T03:14:55.647Z,15.3923
2023-04-19T03:15:56.729Z,15.2462
2023-04-19T03:16:57.748Z,16.0231
2023-04-19T03:17:58.785Z,14.9154
2023-04-19T03:18:59.809Z,14.5615
2023-04-19T03:20:00.856Z,14.2231
2023-04-19T03:21:01.917Z,15.4154
2023-04-19T03:22:02.990Z,14.6231
2023-04-19T03:23:03.997Z,14.2231
2023-04-19T03:24:05.107Z,15.2769
2023-04-19T03:25:06.169Z,14.9692
2023-04-19T03:26:07.214Z,14.5923
2023-04-19T03:27:08.339Z,14.8692
2023-04-19T03:28:09.278Z,14.8538
2023-04-19T03:29:10.342Z,15.0154
2023-04-19T03:30:11.343Z,14.7769
2023-04-19T03:31:12.431Z,16.3538
2023-04-19T03:32:13.493Z,14.9692
2023-04-19T03:33:14.487Z,14.9154
2023-04-19T03:34:15.671Z,15.7308
2023-04-19T03:35:16.542Z,14.7154
2023-04-19T03:36:17.607Z,14.9538
2023-04-19T03:37:18.692Z,14.7538
2023-04-19T03:38:19.654Z,13.8077
2023-04-19T03:39:20.704Z,14.8692
2023-04-19T03:40:21.751Z,14.2385
2023-04-19T03:41:22.821Z,14.5385
2023-04-19T03:42:23.872Z,15.2846
2023-04-19T03:43:24.839Z,15.0538
2023-04-19T03:44:25.885Z,15.5923
2023-04-19T03:45:26.942Z,15.7154
2023-04-19T03:46:28.117Z,15.0154
2023-04-19T03:47:29.142Z,15.4538
2023-04-19T03:48:30.090Z,15.0231
2023-04-19T03:49:31.077Z,14.9615
2023-04-19T03:50:32.135Z,15.4846
2023-04-19T03:51:33.177Z,14.7385
2023-04-19T03:52:34.293Z,14.9231
2023-04-19T03:53:35.316Z,15.1615
2023-04-19T03:54:36.332Z,15.1692
2023-04-19T03:55:37.346Z,14.7769
2023-04-19T03:56:38.396Z,15.6385
2023-04-19T03:57:39.454Z,14.9769
2023-04-19T03:58:42.239Z,15.9615
2023-04-19T03:59:41.492Z,15.0000
2023-04-19T04:00:42.525Z,14.9462
2023-04-19T04:01:43.535Z,15.6846
2023-04-19T04:02:44.839Z,14.8462
2023-04-19T04:03:45.895Z,15.9538
2023-04-19T04:04:46.830Z,15.2000
2023-04-19T04:05:47.697Z,14.4077
2023-04-19T04:06:48.700Z,15.2538
2023-04-19T04:07:49.769Z,14.3538
2023-04-19T04:08:50.780Z,15.4308
2023-04-19T04:09:51.820Z,14.6538
2023-04-19T04:10:52.868Z,15.3154
2023-04-19T04:11:53.874Z,15.1462
2023-04-19T04:12:54.964Z,15.2000
2023-04-19T04:13:55.966Z,15.1385
2023-04-19T04:14:57.046Z,15.0615
2023-04-19T04:15:58.129Z,15.2615
2023-04-19T04:16:59.105Z,14.6538
2023-04-19T04:18:00.286Z,14.8846
2023-04-19T04:19:01.188Z,14.0923
2023-04-19T04:20:02.473Z,14.6000
2023-04-19T04:21:03.254Z,14.6462
2023-04-19T04:22:04.313Z,14.5308
2023-04-19T04:23:05.377Z,14.2615
2023-04-19T04:24:06.362Z,13.9538
2023-04-19T04:25:07.433Z,15.0231
2023-04-19T04:26:08.440Z,14.8615
2023-04-19T04:27:09.509Z,15.4000
2023-04-19T04:28:10.545Z,14.8923
2023-04-19T04:29:11.565Z,15.1154
2023-04-19T04:30:12.612Z,15.0000
2023-04-19T04:31:13.650Z,13.4462
2023-04-19T04:32:14.693Z,14.8385
2023-04-19T04:33:15.766Z,14.8308
2023-04-19T04:34:17.009Z,15.0846
2023-04-19T04:35:17.815Z,14.8923
2023-04-19T04:36:18.861Z,14.3077
2023-04-19T04:37:19.892Z,15.9769
2023-04-19T04:38:24.724Z,15.4000
2023-04-19T04:39:21.970Z,14.9462
2023-04-19T04:40:23.034Z,14.1615
2023-04-19T04:41:24.083Z,14.4154
2023-04-19T04:42:25.311Z,14.7538
2023-04-19T04:43:26.205Z,14.8385
2023-04-19T04:44:27.556Z,15.2308
2023-04-19T04:45:28.259Z,14.5154
2023-04-19T04:46:29.290Z,15.4000
2023-04-19T04:47:30.403Z,14.0231
2023-04-19T04:48:31.417Z,14.4077
2023-04-19T04:49:32.376Z,14.2462
2023-04-19T04:50:33.419Z,14.4538
2023-04-19T04:51:34.463Z,14.6154
2023-04-19T04:52:35.523Z,15.2385
2023-04-19T04:53:36.582Z,14.7077
2023-04-19T04:54:37.668Z,14.2154
2023-04-19T04:55:38.611Z,14.8846
2023-04-19T04:56:39.694Z,14.6308
2023-04-19T04:57:40.729Z,13.9385
2023-04-19T04:58:41.800Z,15.1692
2023-04-19T04:59:42.812Z,14.6538
2023-04-19T05:00:43.815Z,15.1846
2023-04-19T05:01:44.898Z,14.2692
2023-04-19T05:02:46.037Z,15.5077
2023-04-19T05:03:47.145Z,15.4692
2023-04-19T05:04:48.040Z,14.7923
2023-04-19T05:05:49.010Z,16.1077
2023-04-19T05:06:50.156Z,14.0615
2023-04-19T05:07:51.173Z,16.3462
2023-04-19T05:08:52.323Z,15.3692
2023-04-19T05:09:53.283Z,13.4923
2023-04-19T05:10:54.318Z,14.9692
2023-04-19T05:11:55.420Z,33.6462
2023-04-19T05:12:56.380Z,17.5231
2023-04-19T05:13:57.594Z,21.5692
2023-04-19T05:14:58.481Z,30.0923
2023-04-19T05:15:59.610Z,78.0077
2023-04-19T05:17:00.559Z,69.8231
2023-04-19T05:18:01.629Z,32.5154
2023-04-19T05:19:02.697Z,18.2769
2023-04-19T05:20:03.647Z,36.4385
2023-04-19T05:21:04.680Z,30.8154
2023-04-19T05:22:05.810Z,20.3692
2023-04-19T05:23:06.831Z,31.0154
2023-04-19T05:24:07.856Z,17.9846
2023-04-19T05:25:08.835Z,15.7231
2023-04-19T05:26:09.883Z,15.5077
2023-04-19T05:27:10.917Z,16.2231
2023-04-19T05:28:11.998Z,17.5538
2023-04-19T05:29:13.077Z,15.8923
2023-04-19T05:30:14.098Z,14.5231
2023-04-19T05:31:15.134Z,19.4077
2023-04-19T05:32:16.142Z,22.5308
2023-04-19T05:33:17.179Z,36.2615
2023-04-19T05:34:20.585Z,32.5462
2023-04-19T05:35:19.247Z,22.0308
2023-04-19T05:36:20.296Z,32.8462
2023-04-19T05:37:21.396Z,22.3231
2023-04-19T05:38:22.406Z,20.3846
2023-04-19T05:39:23.547Z,18.7385
2023-04-19T05:40:24.509Z,22.4077
2023-04-19T05:41:25.570Z,28.2154
2023-04-19T05:42:26.569Z,20.8000
2023-04-19T05:43:27.792Z,28.4846
2023-04-19T05:44:28.746Z,48.6077
2023-04-19T05:45:29.663Z,50.7231
2023-04-19T05:46:30.751Z,69.9154
2023-04-19T05:47:31.788Z,20.9846
2023-04-19T05:48:32.753Z,19.1538
2023-04-19T05:49:33.873Z,16.4615
2023-04-19T05:50:34.852Z,15.4077
2023-04-19T05:51:35.871Z,16.9154
2023-04-19T05:52:36.928Z,73.5231
2023-04-19T05:53:37.982Z,41.8692
2023-04-19T05:54:39.049Z,15.1846
2023-04-19T05:55:40.073Z,15.0308
2023-04-19T05:56:41.118Z,14.5077
2023-04-19T05:57:42.155Z,15.1231
2023-04-19T05:58:43.196Z,14.5000
2023-04-19T05:59:44.297Z,14.9923
2023-04-19T06:00:45.288Z,14.8231
2023-04-19T06:01:46.353Z,15.5538
2023-04-19T06:02:47.445Z,15.6769
2023-04-19T06:03:48.489Z,15.4846
2023-04-19T06:04:49.763Z,14.4000
2023-04-19T06:05:50.543Z,14.5769
2023-04-19T06:06:51.543Z,14.7692
2023-04-19T06:07:59.399Z,14.0615
2023-04-19T06:08:54.848Z,15.3846
2023-04-19T06:09:54.684Z,15.6692
2023-04-19T06:11:00.121Z,16.8385
2023-04-19T06:11:56.740Z,17.9077
2023-04-19T06:12:57.749Z,15.2615
2023-04-19T06:13:58.838Z,13.7538
2023-04-19T06:14:59.865Z,15.6538
2023-04-19T06:16:00.975Z,15.3769
2023-04-19T06:17:01.931Z,15.1538
2023-04-19T06:18:02.983Z,14.9692
2023-04-19T06:19:04.021Z,12.6385
2023-04-19T06:20:05.123Z,14.0846
2023-04-19T06:21:06.095Z,13.7538
2023-04-19T06:22:07.224Z,14.1692
2023-04-19T06:23:08.181Z,14.9231
2023-04-19T06:24:09.182Z,14.4231
2023-04-19T06:25:10.282Z,14.5846
2023-04-19T06:26:11.325Z,14.7769
2023-04-19T06:27:12.317Z,18.2308
2023-04-19T06:28:13.370Z,15.2615
2023-04-19T06:29:14.420Z,16.8308
2023-04-19T06:30:15.514Z,20.8308
2023-04-19T06:31:16.525Z,23.9308
2023-04-19T06:32:17.591Z,32.4923
2023-04-19T06:33:18.578Z,22.5538
2023-04-19T06:34:19.866Z,17.8000
2023-04-19T06:35:20.682Z,18.8385
2023-04-19T06:36:21.739Z,19.9692
2023-04-19T06:37:22.729Z,17.6154
2023-04-19T06:38:23.784Z,18.0385
2023-04-19T06:39:24.841Z,16.4154
2023-04-19T06:40:25.904Z,17.8154
2023-04-19T06:41:26.939Z,21.9692
2023-04-19T06:42:27.977Z,14.2538
2023-04-19T06:43:29.130Z,16.7846
2023-04-19T06:44:30.058Z,17.3462
2023-04-19T06:45:31.177Z,24.1769
2023-04-19T06:46:32.521Z,14.9385
2023-04-19T06:47:35.429Z,14.5308
2023-04-19T06:48:34.266Z,26.8462
2023-04-19T06:49:35.389Z,15.9538
2023-04-19T06:50:36.315Z,13.6538
2023-04-19T06:51:37.430Z,18.8000
2023-04-19T06:52:38.434Z,14.6385
2023-04-19T06:53:39.433Z,20.8077
2023-04-19T06:54:40.497Z,54.0538
2023-04-19T06:55:41.594Z,33.2231
2023-04-19T06:56:42.755Z,38.9231
2023-04-19T06:57:43.634Z,33.2077
2023-04-19T06:58:44.694Z,52.0692
2023-04-19T06:59:45.718Z,28.3077
2023-04-19T07:00:46.792Z,19.6615
2023-04-19T07:01:47.976Z,14.5308
2023-04-19T07:02:48.969Z,14.4000
2023-04-19T07:03:50.050Z,12.9385
2023-04-19T07:04:51.016Z,13.2769
2023-04-19T07:05:52.033Z,13.3769
2023-04-19T07:06:53.033Z,13.2923
2023-04-19T07:07:54.078Z,12.8077
2023-04-19T07:08:55.137Z,13.4385
2023-04-19T07:09:56.186Z,13.1462
2023-04-19T07:10:57.250Z,13.6385
2023-04-19T07:11:58.367Z,14.0692
2023-04-19T07:12:59.377Z,14.5615
2023-04-19T07:14:00.427Z,16.4385
2023-04-19T07:15:01.460Z,15.6846
2023-04-19T07:16:02.586Z,14.1154
2023-04-19T07:17:03.608Z,14.9692
2023-04-19T07:18:04.618Z,16.5846
2023-04-19T07:19:05.636Z,17.6538
2023-04-19T07:20:06.723Z,15.8000
2023-04-19T07:21:07.697Z,15.0846
2023-04-19T07:22:08.828Z,15.5308
2023-04-19T07:23:09.885Z,20.2308
2023-04-19T07:24:10.848Z,17.4077
2023-04-19T07:25:11.891Z,18.6846
2023-04-19T07:26:12.916Z,18.2462
2023-04-19T07:27:14.065Z,14.2385
2023-04-19T07:28:14.994Z,14.1154
2023-04-19T07:29:16.035Z,15.2385
2023-04-19T07:30:17.119Z,17.9000
2023-04-19T07:31:18.190Z,17.6000
2023-04-19T07:32:19.269Z,16.2769
2023-04-19T07:33:20.222Z,20.7385
2023-04-19T07:34:21.252Z,16.5692
2023-04-19T07:35:22.349Z,15.2538
2023-04-19T07:36:23.333Z,14.7000
2023-04-19T07:37:24.447Z,13.7538
2023-04-19T07:38:25.419Z,14.0769
2023-04-19T07:39:26.461Z,16.4769
2023-04-19T07:40:27.492Z,17.0154
2023-04-19T07:41:28.553Z,15.1923
2023-04-19T07:42:29.621Z,16.2308
2023-04-19T07:43:30.676Z,14.2846
2023-04-19T07:44:31.652Z,20.7154
2023-04-19T07:45:32.710Z,17.1692
2023-04-19T07:46:33.814Z,14.0769
2023-04-19T07:47:34.889Z,14.1615
2023-04-19T07:48:35.882Z,19.6231
2023-04-19T07:49:36.901Z,18.9308
2023-04-19T07:50:37.937Z,21.7462
2023-04-19T07:51:38.995Z,27.4923
2023-04-19T07:52:40.078Z,20.2538
2023-04-19T07:53:41.102Z,15.2077
2023-04-19T07:54:42.131Z,13.8846
2023-04-19T07:55:43.133Z,15.5769
2023-04-19T07:56:44.151Z,12.8462
2023-04-19T07:57:45.297Z,14.7000
2023-04-19T07:58:50.917Z,18.3846
2023-04-19T07:59:47.313Z,25.6923
2023-04-19T08:00:48.491Z,28.1000
2023-04-19T08:01:49.533Z,23.0846
2023-04-19T08:02:50.776Z,22.9538
2023-04-19T08:03:51.774Z,15.5000
2023-04-19T08:04:53.030Z,14.5385
2023-04-19T08:05:53.851Z,15.7385
2023-04-19T08:06:54.619Z,20.8538
2023-04-19T08:07:55.679Z,21.1385
2023-04-19T08:08:56.694Z,18.5385
2023-04-19T08:09:57.808Z,16.5308
2023-04-19T08:11:00.735Z,12.8538
2023-04-19T08:11:59.796Z,13.0000
2023-04-19T08:13:05.179Z,13.2769
2023-04-19T08:14:12.015Z,18.7308
2023-04-19T08:15:11.179Z,16.8231
2023-04-19T08:16:36.940Z,19.5923
2023-04-19T08:18:06.159Z,17.3462
2023-04-19T08:19:07.120Z,17.4385
2023-04-19T08:20:08.176Z,26.5538
2023-04-19T08:21:09.208Z,20.9077
2023-04-19T08:22:10.218Z,19.9154
2023-04-19T08:23:22.321Z,15.2846
2023-04-19T08:24:12.334Z,20.4538
2023-04-19T08:25:13.378Z,30.2615
2023-04-19T08:26:14.429Z,19.9923
2023-04-19T08:27:15.486Z,13.2769
2023-04-19T08:28:16.598Z,15.0923
2023-04-19T08:29:17.712Z,11.4615
2023-04-19T08:30:18.592Z,12.6385
2023-04-19T08:31:19.631Z,12.1769
2023-04-19T08:32:20.698Z,24.1538
2023-04-19T08:33:21.768Z,21.7769
2023-04-19T08:34:22.739Z,15.3385
2023-04-19T08:35:23.813Z,17.4846
2023-04-19T08:36:34.803Z,20.6000
2023-04-19T08:37:25.896Z,31.4308
2023-04-19T08:38:26.984Z,19.9538
2023-04-19T08:39:33.030Z,14.9000
2023-04-19T08:40:29.040Z,16.6308
2023-04-19T08:41:30.046Z,19.0154
2023-04-19T08:42:36.529Z,16.5769
2023-04-19T08:43:32.164Z,12.7231
2023-04-19T08:44:36.503Z,16.8231
2023-04-19T08:45:34.208Z,21.1385
2023-04-19T08:46:35.284Z,19.2462
2023-04-19T08:47:41.958Z,14.7231
2023-04-19T08:48:37.436Z,19.4923
2023-04-19T08:49:39.986Z,36.4769
2023-04-19T08:50:48.836Z,12.7615
2023-04-19T08:51:40.478Z,16.4077
2023-04-19T08:52:51.984Z,20.0385
2023-04-19T08:53:42.592Z,19.1769
2023-04-19T08:54:43.615Z,15.6846
2023-04-19T08:56:03.557Z,17.2000
2023-04-19T08:56:45.688Z,15.9000
2023-04-19T08:57:46.725Z,13.7154
2023-04-19T08:59:48.790Z,13.4308
2023-04-19T09:00:49.834Z,12.8692
2023-04-19T09:01:50.915Z,14.2846
2023-04-19T09:02:52.227Z,19.6077
2023-04-19T09:04:04.652Z,15.1538
2023-04-19T09:04:54.132Z,14.8308
2023-04-19T09:05:55.270Z,12.9692
2023-04-19T09:06:56.131Z,12.8000
2023-04-19T09:07:57.168Z,13.6308
2023-04-19T09:08:58.233Z,13.3385
2023-04-19T09:10:02.732Z,15.0538
2023-04-19T09:11:00.286Z,13.4846
2023-04-19T09:12:01.320Z,19.4846
2023-04-19T09:13:02.369Z,16.6385
2023-04-19T09:14:03.474Z,22.3462
2023-04-19T09:15:04.437Z,17.1769
2023-04-19T09:16:05.656Z,18.2231
2023-04-19T09:17:06.504Z,12.2385
2023-04-19T09:18:07.847Z,12.0923
2023-04-19T09:19:19.955Z,12.1077
2023-04-19T09:20:09.658Z,13.7923
2023-04-19T09:21:10.688Z,11.7538
2023-04-19T09:22:11.724Z,16.9615
2023-04-19T09:23:12.836Z,13.1154
2023-04-19T09:24:14.184Z,11.7538
2023-04-19T09:25:39.268Z,11.8000
2023-04-19T09:26:22.865Z,12.5615
2023-04-19T09:27:16.954Z,13.5385
2023-04-19T09:28:17.978Z,13.8385
2023-04-19T09:29:19.422Z,11.4000
2023-04-19T09:30:29.992Z,11.5769
2023-04-19T09:31:38.943Z,16.3154
2023-04-19T09:32:22.318Z,11.4462
2023-04-19T09:33:23.355Z,12.8462
2023-04-19T09:34:24.300Z,14.7000
2023-04-19T09:35:25.308Z,13.0308
2023-04-19T09:36:26.357Z,14.8077
2023-04-19T09:37:39.134Z,14.6077
2023-04-19T09:38:28.387Z,13.5615
2023-04-19T09:39:29.494Z,12.7846
2023-04-19T09:40:30.487Z,15.3692
2023-04-19T09:41:31.540Z,12.5385
2023-04-19T09:42:54.449Z,18.0385
2023-04-19T09:45:02.171Z,12.6308
2023-04-19T09:45:35.712Z,12.9769
2023-04-19T09:46:36.847Z,13.3385
2023-04-19T09:47:37.793Z,12.1154
2023-04-19T09:48:38.854Z,11.4538
2023-04-19T09:49:48.479Z,12.5308
2023-04-19T09:50:53.617Z,14.1231
2023-04-19T09:51:41.940Z,11.7385
2023-04-19T09:52:42.976Z,12.8462
2023-04-19T09:53:44.028Z,12.2846
2023-04-19T09:54:45.074Z,11.1077
2023-04-19T09:55:59.746Z,12.7538
2023-04-19T09:56:47.138Z,15.0692
2023-04-19T09:57:48.153Z,11.6000
2023-04-19T09:58:52.774Z,15.1846
2023-04-19T09:59:50.267Z,13.7462
2023-04-19T10:00:54.991Z,11.7308
2023-04-19T10:01:52.345Z,12.8538
2023-04-19T10:02:53.424Z,13.8769
2023-04-19T10:03:55.365Z,12.3462
2023-04-19T10:05:11.355Z,11.4538
2023-04-19T10:05:56.677Z,12.8769
2023-04-19T10:07:19.253Z,12.0154
2023-04-19T10:07:59.859Z,11.2769
2023-04-19T10:08:59.578Z,10.7462
2023-04-19T10:11:01.673Z,11.2000
2023-04-19T10:12:11.377Z,11.0692
2023-04-19T10:14:04.746Z,11.1923
2023-04-19T10:15:05.814Z,9.6615
2023-04-19T10:16:18.147Z,10.4000
2023-04-19T10:17:07.962Z,10.5538
2023-04-19T10:18:08.926Z,11.5154
2023-04-19T10:19:10.158Z,11.4154
2023-04-19T10:20:11.037Z,10.2615
2023-04-19T10:21:12.107Z,10.2000
2023-04-19T10:22:13.117Z,10.5769
2023-04-19T10:23:14.128Z,10.7923
2023-04-19T10:24:15.176Z,10.5077
2023-04-19T10:25:16.226Z,10.7385
2023-04-19T10:26:17.335Z,10.6692
2023-04-19T10:27:18.295Z,10.8077
2023-04-19T10:28:19.292Z,10.9000
2023-04-19T10:29:20.352Z,11.0385
2023-04-19T10:30:21.394Z,11.1923
2023-04-19T10:31:22.536Z,10.7308
2023-04-19T10:32:23.531Z,10.7154
2023-04-19T10:33:24.484Z,10.2385
2023-04-19T10:34:25.541Z,10.1538
2023-04-19T10:35:26.563Z,10.2077
2023-04-19T10:36:27.683Z,10.5692
2023-04-19T10:37:28.643Z,11.3231
2023-04-19T10:38:29.689Z,11.1077
2023-04-19T10:39:30.737Z,10.5385
2023-04-19T10:40:31.782Z,10.9769
2023-04-19T10:41:32.867Z,11.4077
2023-04-19T10:42:33.875Z,11.2692
2023-04-19T10:43:34.896Z,10.5385
2023-04-19T10:44:35.944Z,10.6385
2023-04-19T10:45:36.999Z,10.9077
2023-04-19T10:46:38.089Z,10.6000
2023-04-19T10:47:39.114Z,10.9692
2023-04-19T10:48:40.085Z,11.3154
2023-04-19T10:49:41.140Z,10.7769
2023-04-19T10:50:42.467Z,10.7000
2023-04-19T10:51:43.365Z,10.0000
2023-04-19T10:52:44.275Z,10.7692
2023-04-19T10:53:45.338Z,10.5769
2023-04-19T10:54:46.378Z,10.4385
2023-04-19T10:55:47.380Z,11.9615
2023-04-19T10:56:48.493Z,10.9846
2023-04-19T10:57:49.442Z,11.6154
2023-04-19T10:58:50.473Z,10.3615
2023-04-19T10:59:51.526Z,10.3462
2023-04-19T11:00:52.569Z,10.3692
2023-04-19T11:01:53.854Z,10.8385
2023-04-19T11:02:54.730Z,10.3769
2023-04-19T11:03:55.963Z,10.6538
2023-04-19T11:04:56.734Z,10.5308
2023-04-19T11:05:57.780Z,10.8769
2023-04-19T11:06:58.847Z,10.9769
2023-04-19T11:07:59.903Z,16.1231
2023-04-19T11:09:00.882Z,15.2000
2023-04-19T11:10:02.010Z,12.0538
2023-04-19T11:11:02.990Z,16.3385
2023-04-19T11:12:04.041Z,12.8462
2023-04-19T11:13:05.120Z,11.3769
2023-04-19T11:14:06.167Z,11.4077
2023-04-19T11:15:07.237Z,10.9308
2023-04-19T11:16:08.366Z,11.5385
2023-04-19T11:17:09.342Z,10.4615
2023-04-19T11:18:12.994Z,11.4154
2023-04-19T11:19:11.380Z,11.7692
2023-04-19T11:20:12.688Z,11.8538
2023-04-19T11:21:13.457Z,11.9154
2023-04-19T11:22:14.499Z,11.4154
2023-04-19T11:23:15.577Z,11.2231
2023-04-19T11:24:16.560Z,10.8615
2023-04-19T11:25:17.612Z,10.9000
2023-04-19T11:26:18.680Z,11.9077
2023-04-19T11:27:19.672Z,12.1538
2023-04-19T11:28:20.752Z,12.2385
2023-04-19T11:29:21.773Z,11.0000
2023-04-19T11:30:23.255Z,11.7923
2023-04-19T11:31:23.912Z,10.6538
2023-04-19T11:32:24.975Z,10.8462
2023-04-19T11:33:25.951Z,10.6769
2023-04-19T11:34:26.947Z,11.7462
2023-04-19T11:35:27.964Z,10.6692
2023-04-19T11:36:29.051Z,11.2231
2023-04-19T11:37:30.097Z,10.8000
2023-04-19T11:38:31.156Z,11.1923
2023-04-19T11:39:32.145Z,10.5923
2023-04-19T11:40:33.207Z,10.9846
2023-04-19T11:41:34.225Z,10.7308
2023-04-19T11:42:35.269Z,10.8769
2023-04-19T11:43:36.350Z,11.2231
2023-04-19T11:44:37.344Z,11.3154
2023-04-19T11:45:39.636Z,11.0077
2023-04-19T11:46:39.438Z,11.5462
2023-04-19T11:47:40.498Z,11.0692
2023-04-19T11:48:41.517Z,11.0231
2023-04-19T11:49:42.533Z,10.6385
2023-04-19T11:50:43.556Z,9.8769
2023-04-19T11:51:44.623Z,10.3462
2023-04-19T11:52:45.784Z,11.2154
2023-04-19T11:53:46.709Z,10.5538
2023-04-19T11:54:47.714Z,12.2923
2023-04-19T11:55:48.811Z,10.1462
2023-04-19T11:56:49.850Z,11.4385
2023-04-19T11:57:50.890Z,11.2769
2023-04-19T11:58:51.944Z,11.5692
2023-04-19T11:59:52.922Z,10.5077
2023-04-19T12:00:54.004Z,11.2308
2023-04-19T12:01:55.094Z,11.2769
2023-04-19T12:02:56.174Z,11.5923
2023-04-19T12:03:57.498Z,12.5308
2023-04-19T12:04:58.396Z,11.9692
2023-04-19T12:05:59.181Z,10.5846
2023-04-19T12:07:00.176Z,11.4385
2023-04-19T12:08:01.244Z,11.3462
2023-04-19T12:09:02.311Z,11.2000
2023-04-19T12:10:03.309Z,10.4615
2023-04-19T12:11:04.357Z,10.7231
2023-04-19T12:12:05.417Z,11.2231
2023-04-19T12:13:06.444Z,11.1077
2023-04-19T12:14:07.520Z,11.8923
2023-04-19T12:15:08.501Z,11.2692
2023-04-19T12:16:09.586Z,10.1769
2023-04-19T12:17:10.758Z,11.8000
2023-04-19T12:18:11.667Z,11.4769
2023-04-19T12:19:12.668Z,10.8846
2023-04-19T12:20:13.713Z,10.7769
2023-04-19T12:21:14.738Z,10.7308
2023-04-19T12:22:15.731Z,10.5923
2023-04-19T12:23:16.798Z,10.5692